sensor_id;sensor_type;location;lat;lon;timestamp;temperature;humidity
11446;DHT22;5779;64.178;15.432;2022-12-24T00:00:39;-5.40;99.90
11446;DHT22;5779;64.178;15.432;2022-12-24T00:03:26;-5.60;99.90
11446;DHT22;5779;64.178;15.432;2022-12-24T00:06:17;-5.50;99.90
11446;DHT22;5779;64.178;15.432;2022-12-24T00:09:04;-5.40;99.90
11446;DHT22;5779;64.178;15.432;2022-12-24T00:11:50;-5.30;99.90
11446;DHT22;5779;64.178;15.432;2022-12-24T00:14:39;-5.30;99.90
11446;DHT22;5779;64.178;15.432;2022-12-24T00:17:26;-5.20;99.90
11446;DHT22;5779;64.178;15.432;2022-12-24T00:20:12;-5.20;99.90
11446;DHT22;5779;64.178;15.432;2022-12-24T00:22:59;-5.20;99.90
11446;DHT22;5779;64.178;15.432;2022-12-24T00:25:46;-5.30;99.90
11446;DHT22;5779;64.178;15.432;2022-12-24T00:28:33;-5.40;99.90
11446;DHT22;5779;64.178;15.432;2022-12-24T00:31:21;-5.60;99.90
11446;DHT22;5779;64.178;15.432;2022-12-24T00:34:08;-6.00;99.90
11446;DHT22;5779;64.178;15.432;2022-12-24T00:36:55;-6.00;99.90
11446;DHT22;5779;64.178;15.432;2022-12-24T00:39:42;-6.10;99.90
11446;DHT22;5779;64.178;15.432;2022-12-24T00:42:29;-6.30;99.90
11446;DHT22;5779;64.178;15.432;2022-12-24T00:45:16;-6.10;99.90
11446;DHT22;5779;64.178;15.432;2022-12-24T00:48:05;-5.90;99.90
11446;DHT22;5779;64.178;15.432;2022-12-24T00:50:52;-5.90;99.90
11446;DHT22;5779;64.178;15.432;2022-12-24T00:53:39;-6.00;99.90
11446;DHT22;5779;64.178;15.432;2022-12-24T00:56:26;-6.10;99.90
11446;DHT22;5779;64.178;15.432;2022-12-24T00:59:13;-6.00;99.90
11446;DHT22;5779;64.178;15.432;2022-12-24T01:02:00;-6.00;99.90
11446;DHT22;5779;64.178;15.432;2022-12-24T01:04:48;-6.00;99.90
11446;DHT22;5779;64.178;15.432;2022-12-24T01:07:52;-6.20;99.90
11446;DHT22;5779;64.178;15.432;2022-12-24T01:10:39;-6.60;99.90
11446;DHT22;5779;64.178;15.432;2022-12-24T01:13:26;-6.90;99.90
11446;DHT22;5779;64.178;15.432;2022-12-24T01:16:15;-6.70;99.90
11446;DHT22;5779;64.178;15.432;2022-12-24T01:19:02;-6.70;99.90
11446;DHT22;5779;64.178;15.432;2022-12-24T01:21:51;-6.80;99.90
11446;DHT22;5779;64.178;15.432;2022-12-24T01:24:39;-6.60;99.90
11446;DHT22;5779;64.178;15.432;2022-12-24T01:27:26;-7.00;99.90
11446;DHT22;5779;64.178;15.432;2022-12-24T01:30:13;-6.80;99.90
11446;DHT22;5779;64.178;15.432;2022-12-24T01:33:00;-6.60;99.90
11446;DHT22;5779;64.178;15.432;2022-12-24T01:35:48;-6.40;99.90
11446;DHT22;5779;64.178;15.432;2022-12-24T01:38:36;-6.30;99.90
11446;DHT22;5779;64.178;15.432;2022-12-24T01:41:23;-6.10;99.90
11446;DHT22;5779;64.178;15.432;2022-12-24T01:44:29;-6.10;99.90
11446;DHT22;5779;64.178;15.432;2022-12-24T01:47:19;-6.30;99.90
11446;DHT22;5779;64.178;15.432;2022-12-24T01:50:14;-6.60;99.90
11446;DHT22;5779;64.178;15.432;2022-12-24T01:53:03;-6.50;99.90
11446;DHT22;5779;64.178;15.432;2022-12-24T01:55:53;-6.80;99.90
11446;DHT22;5779;64.178;15.432;2022-12-24T01:58:44;-6.80;99.90
11446;DHT22;5779;64.178;15.432;2022-12-24T02:01:32;-6.70;99.90
11446;DHT22;5779;64.178;15.432;2022-12-24T02:04:25;-6.70;99.90
11446;DHT22;5779;64.178;15.432;2022-12-24T02:07:14;-6.50;99.90
11446;DHT22;5779;64.178;15.432;2022-12-24T02:10:03;-6.30;99.90
11446;DHT22;5779;64.178;15.432;2022-12-24T02:12:52;-6.40;99.90
11446;DHT22;5779;64.178;15.432;2022-12-24T02:15:55;-6.30;99.90
11446;DHT22;5779;64.178;15.432;2022-12-24T02:18:51;-6.30;99.90
11446;DHT22;5779;64.178;15.432;2022-12-24T02:21:54;-6.40;99.90
11446;DHT22;5779;64.178;15.432;2022-12-24T02:25:02;-6.20;99.90
11446;DHT22;5779;64.178;15.432;2022-12-24T02:27:58;-6.30;99.90
11446;DHT22;5779;64.178;15.432;2022-12-24T02:30:51;-6.30;99.90
11446;DHT22;5779;64.178;15.432;2022-12-24T02:33:44;-6.30;99.90
11446;DHT22;5779;64.178;15.432;2022-12-24T02:36:36;-6.10;99.90
11446;DHT22;5779;64.178;15.432;2022-12-24T02:39:31;-5.60;99.90
11446;DHT22;5779;64.178;15.432;2022-12-24T02:42:22;-5.10;99.90
11446;DHT22;5779;64.178;15.432;2022-12-24T02:45:12;-4.20;99.90
11446;DHT22;5779;64.178;15.432;2022-12-24T02:48:02;-4.10;99.90
11446;DHT22;5779;64.178;15.432;2022-12-24T02:51:02;-3.90;99.90
11446;DHT22;5779;64.178;15.432;2022-12-24T02:53:50;-3.70;99.90
11446;DHT22;5779;64.178;15.432;2022-12-24T02:56:59;-3.60;99.90
11446;DHT22;5779;64.178;15.432;2022-12-24T03:00:00;-3.20;99.90
11446;DHT22;5779;64.178;15.432;2022-12-24T03:03:08;-2.90;99.90
11446;DHT22;5779;64.178;15.432;2022-12-24T03:06:02;-2.80;99.90
11446;DHT22;5779;64.178;15.432;2022-12-24T03:08:54;-2.60;99.90
11446;DHT22;5779;64.178;15.432;2022-12-24T03:11:47;-2.70;99.90
11446;DHT22;5779;64.178;15.432;2022-12-24T03:14:36;-2.90;99.90
11446;DHT22;5779;64.178;15.432;2022-12-24T03:17:26;-3.20;99.90
11446;DHT22;5779;64.178;15.432;2022-12-24T03:20:19;-3.20;99.90
11446;DHT22;5779;64.178;15.432;2022-12-24T03:23:08;-3.30;99.90
11446;DHT22;5779;64.178;15.432;2022-12-24T03:25:54;-3.30;99.90
11446;DHT22;5779;64.178;15.432;2022-12-24T03:28:43;-3.30;99.90
11446;DHT22;5779;64.178;15.432;2022-12-24T03:31:40;-3.40;99.90
11446;DHT22;5779;64.178;15.432;2022-12-24T03:34:27;-3.40;99.90
11446;DHT22;5779;64.178;15.432;2022-12-24T03:37:15;-3.60;99.90
11446;DHT22;5779;64.178;15.432;2022-12-24T03:40:03;-3.70;99.90
11446;DHT22;5779;64.178;15.432;2022-12-24T03:42:50;-3.70;99.90
11446;DHT22;5779;64.178;15.432;2022-12-24T03:45:37;-3.80;99.90
11446;DHT22;5779;64.178;15.432;2022-12-24T03:48:24;-3.80;99.90
11446;DHT22;5779;64.178;15.432;2022-12-24T03:51:17;-3.90;99.90
11446;DHT22;5779;64.178;15.432;2022-12-24T03:54:06;-4.00;99.90
11446;DHT22;5779;64.178;15.432;2022-12-24T03:56:52;-4.10;99.90
11446;DHT22;5779;64.178;15.432;2022-12-24T03:59:39;-4.10;99.90
11446;DHT22;5779;64.178;15.432;2022-12-24T04:02:26;-4.00;99.90
11446;DHT22;5779;64.178;15.432;2022-12-24T04:05:13;-4.00;99.90
11446;DHT22;5779;64.178;15.432;2022-12-24T04:08:00;-4.10;99.90
11446;DHT22;5779;64.178;15.432;2022-12-24T04:10:49;-4.00;99.90
11446;DHT22;5779;64.178;15.432;2022-12-24T04:13:36;-4.00;99.90
11446;DHT22;5779;64.178;15.432;2022-12-24T04:16:22;-3.90;99.90
11446;DHT22;5779;64.178;15.432;2022-12-24T04:19:09;-4.00;99.90
11446;DHT22;5779;64.178;15.432;2022-12-24T04:21:56;-4.10;99.90
11446;DHT22;5779;64.178;15.432;2022-12-24T04:24:43;-4.30;99.90
11446;DHT22;5779;64.178;15.432;2022-12-24T04:27:31;-4.50;99.90
11446;DHT22;5779;64.178;15.432;2022-12-24T04:30:18;-4.80;99.90
11446;DHT22;5779;64.178;15.432;2022-12-24T04:33:05;-4.50;99.90
11446;DHT22;5779;64.178;15.432;2022-12-24T04:35:52;-4.50;99.90
11446;DHT22;5779;64.178;15.432;2022-12-24T04:38:39;-4.40;99.90
11446;DHT22;5779;64.178;15.432;2022-12-24T04:41:27;-4.40;99.90
11446;DHT22;5779;64.178;15.432;2022-12-24T04:44:15;-4.30;99.90
11446;DHT22;5779;64.178;15.432;2022-12-24T04:47:02;-4.20;99.90
11446;DHT22;5779;64.178;15.432;2022-12-24T04:49:49;-4.20;99.90
11446;DHT22;5779;64.178;15.432;2022-12-24T04:52:36;-4.20;99.90
11446;DHT22;5779;64.178;15.432;2022-12-24T04:55:23;-4.60;99.90
11446;DHT22;5779;64.178;15.432;2022-12-24T04:58:10;-4.80;99.90
11446;DHT22;5779;64.178;15.432;2022-12-24T05:01:02;-5.20;99.90
11446;DHT22;5779;64.178;15.432;2022-12-24T05:03:50;-5.50;99.90
11446;DHT22;5779;64.178;15.432;2022-12-24T05:06:37;-5.50;99.90
11446;DHT22;5779;64.178;15.432;2022-12-24T05:09:24;-5.70;99.90
11446;DHT22;5779;64.178;15.432;2022-12-24T05:12:11;-5.90;99.90
11446;DHT22;5779;64.178;15.432;2022-12-24T05:14:58;-6.00;99.90
11446;DHT22;5779;64.178;15.432;2022-12-24T05:17:46;-5.60;99.90
11446;DHT22;5779;64.178;15.432;2022-12-24T05:20:33;-5.40;99.90
11446;DHT22;5779;64.178;15.432;2022-12-24T05:23:21;-5.20;99.90
11446;DHT22;5779;64.178;15.432;2022-12-24T05:26:27;-5.10;99.90
11446;DHT22;5779;64.178;15.432;2022-12-24T05:29:14;-4.90;99.90
11446;DHT22;5779;64.178;15.432;2022-12-24T05:32:01;-5.00;99.90
11446;DHT22;5779;64.178;15.432;2022-12-24T05:34:50;-5.10;99.90
11446;DHT22;5779;64.178;15.432;2022-12-24T05:37:37;-5.30;99.90
11446;DHT22;5779;64.178;15.432;2022-12-24T05:40:24;-5.30;99.90
11446;DHT22;5779;64.178;15.432;2022-12-24T05:43:11;-5.10;99.90
11446;DHT22;5779;64.178;15.432;2022-12-24T05:45:58;-4.90;99.90
11446;DHT22;5779;64.178;15.432;2022-12-24T05:48:45;-4.80;99.90
11446;DHT22;5779;64.178;15.432;2022-12-24T05:51:34;-4.80;99.90
11446;DHT22;5779;64.178;15.432;2022-12-24T05:54:21;-4.70;99.90
11446;DHT22;5779;64.178;15.432;2022-12-24T05:57:08;-4.80;99.90
11446;DHT22;5779;64.178;15.432;2022-12-24T05:59:55;-4.80;99.90
11446;DHT22;5779;64.178;15.432;2022-12-24T06:02:42;-4.70;99.90
11446;DHT22;5779;64.178;15.432;2022-12-24T06:05:29;-4.70;99.90
11446;DHT22;5779;64.178;15.432;2022-12-24T06:08:18;-4.90;99.90
11446;DHT22;5779;64.178;15.432;2022-12-24T06:11:07;-5.00;99.90
11446;DHT22;5779;64.178;15.432;2022-12-24T06:13:54;-5.10;99.90
11446;DHT22;5779;64.178;15.432;2022-12-24T06:16:41;-5.20;99.90
11446;DHT22;5779;64.178;15.432;2022-12-24T06:19:28;-5.10;99.90
11446;DHT22;5779;64.178;15.432;2022-12-24T06:22:15;-5.40;99.90
11446;DHT22;5779;64.178;15.432;2022-12-24T06:25:03;-5.30;99.90
11446;DHT22;5779;64.178;15.432;2022-12-24T06:27:50;-5.10;99.90
11446;DHT22;5779;64.178;15.432;2022-12-24T06:30:37;-5.20;99.90
11446;DHT22;5779;64.178;15.432;2022-12-24T06:33:24;-5.30;99.90
11446;DHT22;5779;64.178;15.432;2022-12-24T06:36:14;-5.30;99.90
11446;DHT22;5779;64.178;15.432;2022-12-24T06:39:01;-5.40;99.90
11446;DHT22;5779;64.178;15.432;2022-12-24T06:41:50;-5.50;99.90
11446;DHT22;5779;64.178;15.432;2022-12-24T06:44:37;-5.60;99.90
11446;DHT22;5779;64.178;15.432;2022-12-24T06:47:24;-5.60;99.90
11446;DHT22;5779;64.178;15.432;2022-12-24T06:50:11;-5.70;99.90
11446;DHT22;5779;64.178;15.432;2022-12-24T06:52:58;-6.00;99.90
11446;DHT22;5779;64.178;15.432;2022-12-24T06:55:45;-5.80;99.90
11446;DHT22;5779;64.178;15.432;2022-12-24T06:58:34;-5.80;99.90
11446;DHT22;5779;64.178;15.432;2022-12-24T07:01:21;-5.70;99.90
11446;DHT22;5779;64.178;15.432;2022-12-24T07:04:09;-5.50;99.90
11446;DHT22;5779;64.178;15.432;2022-12-24T07:06:55;-5.70;99.90
11446;DHT22;5779;64.178;15.432;2022-12-24T07:09:42;-5.90;99.90
11446;DHT22;5779;64.178;15.432;2022-12-24T07:12:29;-6.20;99.90
11446;DHT22;5779;64.178;15.432;2022-12-24T07:15:18;-6.10;99.90
11446;DHT22;5779;64.178;15.432;2022-12-24T07:18:05;-6.00;99.90
11446;DHT22;5779;64.178;15.432;2022-12-24T07:20:52;-6.20;99.90
11446;DHT22;5779;64.178;15.432;2022-12-24T07:23:39;-6.20;99.90
11446;DHT22;5779;64.178;15.432;2022-12-24T07:26:26;-6.30;99.90
11446;DHT22;5779;64.178;15.432;2022-12-24T07:29:13;-6.50;99.90
11446;DHT22;5779;64.178;15.432;2022-12-24T07:32:02;-6.60;99.90
11446;DHT22;5779;64.178;15.432;2022-12-24T07:34:48;-6.70;99.90
11446;DHT22;5779;64.178;15.432;2022-12-24T07:37:35;-6.80;99.90
11446;DHT22;5779;64.178;15.432;2022-12-24T07:40:22;-7.20;99.90
11446;DHT22;5779;64.178;15.432;2022-12-24T07:43:09;-7.60;99.90
11446;DHT22;5779;64.178;15.432;2022-12-24T07:45:56;-7.60;99.90
11446;DHT22;5779;64.178;15.432;2022-12-24T07:48:45;-7.50;99.90
11446;DHT22;5779;64.178;15.432;2022-12-24T07:51:32;-7.50;99.90
11446;DHT22;5779;64.178;15.432;2022-12-24T07:54:19;-7.50;99.90
11446;DHT22;5779;64.178;15.432;2022-12-24T07:57:05;-7.40;99.90
11446;DHT22;5779;64.178;15.432;2022-12-24T07:59:52;-7.40;99.90
11446;DHT22;5779;64.178;15.432;2022-12-24T08:02:39;-7.50;99.90
11446;DHT22;5779;64.178;15.432;2022-12-24T08:05:28;-7.50;99.90
11446;DHT22;5779;64.178;15.432;2022-12-24T08:08:19;-7.30;99.90
11446;DHT22;5779;64.178;15.432;2022-12-24T08:11:06;-7.40;99.90
11446;DHT22;5779;64.178;15.432;2022-12-24T08:13:53;-7.40;99.90
11446;DHT22;5779;64.178;15.432;2022-12-24T08:16:40;-7.40;99.90
11446;DHT22;5779;64.178;15.432;2022-12-24T08:19:26;-7.40;99.90
11446;DHT22;5779;64.178;15.432;2022-12-24T08:22:15;-7.30;99.90
11446;DHT22;5779;64.178;15.432;2022-12-24T08:25:01;-7.30;99.90
11446;DHT22;5779;64.178;15.432;2022-12-24T08:27:48;-7.40;99.90
11446;DHT22;5779;64.178;15.432;2022-12-24T08:30:35;-7.90;99.90
11446;DHT22;5779;64.178;15.432;2022-12-24T08:33:22;-8.10;99.90
11446;DHT22;5779;64.178;15.432;2022-12-24T08:36:09;-8.20;99.90
11446;DHT22;5779;64.178;15.432;2022-12-24T08:38:57;-8.40;99.90
11446;DHT22;5779;64.178;15.432;2022-12-24T08:41:47;-8.70;99.90
11446;DHT22;5779;64.178;15.432;2022-12-24T08:44:34;-8.70;99.90
11446;DHT22;5779;64.178;15.432;2022-12-24T08:47:21;-9.10;99.90
11446;DHT22;5779;64.178;15.432;2022-12-24T08:50:08;-9.30;99.90
11446;DHT22;5779;64.178;15.432;2022-12-24T08:52:55;-9.30;99.90
11446;DHT22;5779;64.178;15.432;2022-12-24T08:55:44;-9.30;99.90
11446;DHT22;5779;64.178;15.432;2022-12-24T08:58:33;-9.30;99.90
11446;DHT22;5779;64.178;15.432;2022-12-24T09:01:20;-9.20;99.90
11446;DHT22;5779;64.178;15.432;2022-12-24T09:04:07;-9.20;99.90
11446;DHT22;5779;64.178;15.432;2022-12-24T09:06:54;-9.20;99.90
11446;DHT22;5779;64.178;15.432;2022-12-24T09:09:41;-9.20;99.90
11446;DHT22;5779;64.178;15.432;2022-12-24T09:12:29;-9.30;99.90
11446;DHT22;5779;64.178;15.432;2022-12-24T09:15:17;-9.30;99.90
11446;DHT22;5779;64.178;15.432;2022-12-24T09:18:05;-9.40;99.90
11446;DHT22;5779;64.178;15.432;2022-12-24T09:20:58;-9.60;99.90
11446;DHT22;5779;64.178;15.432;2022-12-24T09:23:46;-9.80;99.90
11446;DHT22;5779;64.178;15.432;2022-12-24T09:26:33;-9.80;99.90
11446;DHT22;5779;64.178;15.432;2022-12-24T09:29:22;-9.90;99.90
11446;DHT22;5779;64.178;15.432;2022-12-24T09:32:09;-10.30;99.90
11446;DHT22;5779;64.178;15.432;2022-12-24T09:34:55;-10.20;99.90
11446;DHT22;5779;64.178;15.432;2022-12-24T09:37:42;-10.10;99.90
11446;DHT22;5779;64.178;15.432;2022-12-24T09:40:35;-10.30;99.90
11446;DHT22;5779;64.178;15.432;2022-12-24T09:43:25;-10.60;99.90
11446;DHT22;5779;64.178;15.432;2022-12-24T09:46:19;-10.80;99.90
11446;DHT22;5779;64.178;15.432;2022-12-24T09:49:12;-11.00;99.90
11446;DHT22;5779;64.178;15.432;2022-12-24T09:52:05;-11.00;99.90
11446;DHT22;5779;64.178;15.432;2022-12-24T09:54:57;-10.10;99.90
11446;DHT22;5779;64.178;15.432;2022-12-24T09:57:47;-9.60;99.90
11446;DHT22;5779;64.178;15.432;2022-12-24T10:00:37;-9.60;99.90
11446;DHT22;5779;64.178;15.432;2022-12-24T10:03:25;-9.40;99.90
11446;DHT22;5779;64.178;15.432;2022-12-24T10:06:14;-8.20;99.90
11446;DHT22;5779;64.178;15.432;2022-12-24T10:09:08;-7.50;99.90
11446;DHT22;5779;64.178;15.432;2022-12-24T10:12:03;-7.20;99.90
11446;DHT22;5779;64.178;15.432;2022-12-24T10:15:00;-6.70;99.90
11446;DHT22;5779;64.178;15.432;2022-12-24T10:18:02;-6.40;99.90
11446;DHT22;5779;64.178;15.432;2022-12-24T10:21:00;-6.10;99.90
11446;DHT22;5779;64.178;15.432;2022-12-24T10:23:52;-5.70;99.90
11446;DHT22;5779;64.178;15.432;2022-12-24T10:26:52;-5.10;99.90
11446;DHT22;5779;64.178;15.432;2022-12-24T10:29:44;-4.80;99.90
11446;DHT22;5779;64.178;15.432;2022-12-24T10:32:32;-4.80;99.90
11446;DHT22;5779;64.178;15.432;2022-12-24T10:35:22;-4.80;99.90
11446;DHT22;5779;64.178;15.432;2022-12-24T10:38:12;-4.90;99.90
11446;DHT22;5779;64.178;15.432;2022-12-24T10:40:59;-4.90;99.90
11446;DHT22;5779;64.178;15.432;2022-12-24T10:43:47;-4.90;99.90
11446;DHT22;5779;64.178;15.432;2022-12-24T10:46:37;-4.90;99.90
11446;DHT22;5779;64.178;15.432;2022-12-24T10:49:31;-4.90;99.90
11446;DHT22;5779;64.178;15.432;2022-12-24T10:52:21;-5.20;99.90
11446;DHT22;5779;64.178;15.432;2022-12-24T10:55:20;-5.60;99.90
11446;DHT22;5779;64.178;15.432;2022-12-24T10:58:14;-5.80;99.90
11446;DHT22;5779;64.178;15.432;2022-12-24T11:01:02;-6.00;99.90
11446;DHT22;5779;64.178;15.432;2022-12-24T11:03:59;-6.20;99.90
11446;DHT22;5779;64.178;15.432;2022-12-24T11:06:53;-6.60;99.90
11446;DHT22;5779;64.178;15.432;2022-12-24T11:09:41;-7.00;99.90
11446;DHT22;5779;64.178;15.432;2022-12-24T11:12:47;-6.80;99.90
11446;DHT22;5779;64.178;15.432;2022-12-24T11:15:35;-6.80;99.90
11446;DHT22;5779;64.178;15.432;2022-12-24T11:18:22;-6.90;99.90
11446;DHT22;5779;64.178;15.432;2022-12-24T11:21:10;-7.10;99.90
11446;DHT22;5779;64.178;15.432;2022-12-24T11:23:59;-7.20;99.90
11446;DHT22;5779;64.178;15.432;2022-12-24T11:26:47;-6.90;99.90
11446;DHT22;5779;64.178;15.432;2022-12-24T11:29:35;-6.80;99.90
11446;DHT22;5779;64.178;15.432;2022-12-24T11:32:22;-7.10;99.90
11446;DHT22;5779;64.178;15.432;2022-12-24T11:35:15;-7.60;99.90
11446;DHT22;5779;64.178;15.432;2022-12-24T11:38:09;-7.70;99.90
11446;DHT22;5779;64.178;15.432;2022-12-24T11:41:03;-7.60;99.90
11446;DHT22;5779;64.178;15.432;2022-12-24T11:43:56;-7.40;99.90
11446;DHT22;5779;64.178;15.432;2022-12-24T11:46:46;-7.20;99.90
11446;DHT22;5779;64.178;15.432;2022-12-24T11:49:36;-7.00;99.90
11446;DHT22;5779;64.178;15.432;2022-12-24T11:52:24;-6.90;99.90
11446;DHT22;5779;64.178;15.432;2022-12-24T11:55:17;-7.10;99.90
11446;DHT22;5779;64.178;15.432;2022-12-24T11:58:18;-6.90;99.90
11446;DHT22;5779;64.178;15.432;2022-12-24T12:01:13;-7.00;99.90
11446;DHT22;5779;64.178;15.432;2022-12-24T12:04:07;-7.10;99.90
11446;DHT22;5779;64.178;15.432;2022-12-24T12:06:58;-7.30;99.90
11446;DHT22;5779;64.178;15.432;2022-12-24T12:09:48;-7.80;99.90
11446;DHT22;5779;64.178;15.432;2022-12-24T12:12:40;-7.80;99.90
11446;DHT22;5779;64.178;15.432;2022-12-24T12:15:32;-8.10;99.90
11446;DHT22;5779;64.178;15.432;2022-12-24T12:18:22;-8.30;99.90
11446;DHT22;5779;64.178;15.432;2022-12-24T12:21:15;-8.40;99.90
11446;DHT22;5779;64.178;15.432;2022-12-24T12:24:05;-8.50;99.90
11446;DHT22;5779;64.178;15.432;2022-12-24T12:27:02;-8.30;99.90
11446;DHT22;5779;64.178;15.432;2022-12-24T12:29:55;-8.30;99.90
11446;DHT22;5779;64.178;15.432;2022-12-24T12:32:47;-8.30;99.90
11446;DHT22;5779;64.178;15.432;2022-12-24T12:35:39;-8.30;99.90
11446;DHT22;5779;64.178;15.432;2022-12-24T12:38:28;-8.20;99.90
11446;DHT22;5779;64.178;15.432;2022-12-24T12:41:40;-7.40;99.90
11446;DHT22;5779;64.178;15.432;2022-12-24T12:44:48;-6.90;99.90
11446;DHT22;5779;64.178;15.432;2022-12-24T12:47:55;-6.10;99.90
11446;DHT22;5779;64.178;15.432;2022-12-24T12:50:49;-5.60;99.90
11446;DHT22;5779;64.178;15.432;2022-12-24T12:54:07;-5.40;99.90
11446;DHT22;5779;64.178;15.432;2022-12-24T12:57:01;-4.60;99.90
11446;DHT22;5779;64.178;15.432;2022-12-24T12:59:52;-4.30;99.90
11446;DHT22;5779;64.178;15.432;2022-12-24T13:02:54;-4.20;99.90
11446;DHT22;5779;64.178;15.432;2022-12-24T13:06:03;-4.30;99.90
11446;DHT22;5779;64.178;15.432;2022-12-24T13:15:59;-4.40;99.90
11446;DHT22;5779;64.178;15.432;2022-12-24T13:18:56;-4.30;99.90
11446;DHT22;5779;64.178;15.432;2022-12-24T13:21:46;-4.30;99.90
11446;DHT22;5779;64.178;15.432;2022-12-24T13:24:45;-4.30;99.90
11446;DHT22;5779;64.178;15.432;2022-12-24T13:27:35;-4.30;99.90
11446;DHT22;5779;64.178;15.432;2022-12-24T13:30:37;-4.30;99.90
11446;DHT22;5779;64.178;15.432;2022-12-24T13:33:45;-4.30;99.90
11446;DHT22;5779;64.178;15.432;2022-12-24T13:37:03;-4.40;99.90
11446;DHT22;5779;64.178;15.432;2022-12-24T13:40:21;-4.60;99.90
11446;DHT22;5779;64.178;15.432;2022-12-24T13:43:09;-4.50;99.90
11446;DHT22;5779;64.178;15.432;2022-12-24T13:45:57;-4.70;99.90
11446;DHT22;5779;64.178;15.432;2022-12-24T13:48:44;-4.70;99.90
11446;DHT22;5779;64.178;15.432;2022-12-24T13:51:32;-4.80;99.90
11446;DHT22;5779;64.178;15.432;2022-12-24T13:54:22;-4.90;99.90
11446;DHT22;5779;64.178;15.432;2022-12-24T13:57:32;-5.30;99.90
11446;DHT22;5779;64.178;15.432;2022-12-24T14:00:31;-5.50;99.90
11446;DHT22;5779;64.178;15.432;2022-12-24T14:03:30;-5.70;99.90
11446;DHT22;5779;64.178;15.432;2022-12-24T14:06:22;-5.70;99.90
11446;DHT22;5779;64.178;15.432;2022-12-24T14:09:12;-5.70;99.90
11446;DHT22;5779;64.178;15.432;2022-12-24T14:12:46;-5.80;99.90
11446;DHT22;5779;64.178;15.432;2022-12-24T14:16:02;-5.80;99.90
11446;DHT22;5779;64.178;15.432;2022-12-24T14:18:57;-6.00;99.90
11446;DHT22;5779;64.178;15.432;2022-12-24T14:21:54;-5.80;99.90
11446;DHT22;5779;64.178;15.432;2022-12-24T14:24:44;-5.40;99.90
11446;DHT22;5779;64.178;15.432;2022-12-24T14:27:38;-5.00;99.90
11446;DHT22;5779;64.178;15.432;2022-12-24T14:30:30;-4.60;99.90
11446;DHT22;5779;64.178;15.432;2022-12-24T14:33:29;-4.40;99.90
11446;DHT22;5779;64.178;15.432;2022-12-24T14:36:20;-4.40;99.90
11446;DHT22;5779;64.178;15.432;2022-12-24T14:39:10;-4.30;99.90
11446;DHT22;5779;64.178;15.432;2022-12-24T14:42:20;-4.30;99.90
11446;DHT22;5779;64.178;15.432;2022-12-24T14:45:18;-4.20;99.90
11446;DHT22;5779;64.178;15.432;2022-12-24T14:48:18;-4.10;99.90
11446;DHT22;5779;64.178;15.432;2022-12-24T14:51:14;-4.00;99.90
11446;DHT22;5779;64.178;15.432;2022-12-24T14:54:35;-3.90;99.90
11446;DHT22;5779;64.178;15.432;2022-12-24T14:57:24;-4.00;99.90
11446;DHT22;5779;64.178;15.432;2022-12-24T15:00:19;-4.40;99.90
11446;DHT22;5779;64.178;15.432;2022-12-24T15:03:12;-4.80;99.90
11446;DHT22;5779;64.178;15.432;2022-12-24T15:06:02;-4.90;99.90
11446;DHT22;5779;64.178;15.432;2022-12-24T15:08:52;-5.10;99.90
11446;DHT22;5779;64.178;15.432;2022-12-24T15:11:43;-5.30;99.90
11446;DHT22;5779;64.178;15.432;2022-12-24T15:14:35;-5.20;99.90
11446;DHT22;5779;64.178;15.432;2022-12-24T15:17:27;-4.40;99.90
11446;DHT22;5779;64.178;15.432;2022-12-24T15:20:15;-4.00;99.90
11446;DHT22;5779;64.178;15.432;2022-12-24T15:23:02;-3.70;99.90
11446;DHT22;5779;64.178;15.432;2022-12-24T15:26:12;-3.60;99.90
11446;DHT22;5779;64.178;15.432;2022-12-24T15:29:00;-3.70;99.90
11446;DHT22;5779;64.178;15.432;2022-12-24T15:31:51;-3.90;99.90
11446;DHT22;5779;64.178;15.432;2022-12-24T15:34:41;-3.90;99.90
11446;DHT22;5779;64.178;15.432;2022-12-24T15:37:29;-4.20;99.90
11446;DHT22;5779;64.178;15.432;2022-12-24T15:40:19;-4.10;99.90
11446;DHT22;5779;64.178;15.432;2022-12-24T15:43:08;-3.60;99.90
11446;DHT22;5779;64.178;15.432;2022-12-24T15:45:55;-3.50;99.90
11446;DHT22;5779;64.178;15.432;2022-12-24T15:48:44;-3.60;99.90
11446;DHT22;5779;64.178;15.432;2022-12-24T15:51:33;-3.60;99.90
11446;DHT22;5779;64.178;15.432;2022-12-24T15:54:21;-3.60;99.90
11446;DHT22;5779;64.178;15.432;2022-12-24T15:57:13;-3.90;99.90
11446;DHT22;5779;64.178;15.432;2022-12-24T16:00:05;-4.30;99.90
11446;DHT22;5779;64.178;15.432;2022-12-24T16:03:16;-4.50;99.90
11446;DHT22;5779;64.178;15.432;2022-12-24T16:06:05;-4.40;99.90
11446;DHT22;5779;64.178;15.432;2022-12-24T16:08:53;-4.30;99.90
11446;DHT22;5779;64.178;15.432;2022-12-24T16:11:40;-4.40;99.90
11446;DHT22;5779;64.178;15.432;2022-12-24T16:14:27;-4.60;99.90
11446;DHT22;5779;64.178;15.432;2022-12-24T16:17:22;-5.00;99.90
11446;DHT22;5779;64.178;15.432;2022-12-24T16:20:18;-5.10;99.90
11446;DHT22;5779;64.178;15.432;2022-12-24T16:23:16;-5.10;99.90
11446;DHT22;5779;64.178;15.432;2022-12-24T16:26:03;-5.30;99.90
11446;DHT22;5779;64.178;15.432;2022-12-24T16:28:53;-5.50;99.90
11446;DHT22;5779;64.178;15.432;2022-12-24T16:31:44;-5.90;99.90
11446;DHT22;5779;64.178;15.432;2022-12-24T16:34:33;-6.10;99.90
11446;DHT22;5779;64.178;15.432;2022-12-24T16:37:20;-6.40;99.90
11446;DHT22;5779;64.178;15.432;2022-12-24T16:40:12;-6.60;99.90
11446;DHT22;5779;64.178;15.432;2022-12-24T16:42:59;-6.50;99.90
11446;DHT22;5779;64.178;15.432;2022-12-24T16:46:01;-6.40;99.90
11446;DHT22;5779;64.178;15.432;2022-12-24T16:48:49;-6.60;99.90
11446;DHT22;5779;64.178;15.432;2022-12-24T16:51:37;-6.80;99.90
11446;DHT22;5779;64.178;15.432;2022-12-24T16:54:24;-6.90;99.90
11446;DHT22;5779;64.178;15.432;2022-12-24T16:57:11;-6.80;99.90
11446;DHT22;5779;64.178;15.432;2022-12-24T16:59:57;-6.80;99.90
11446;DHT22;5779;64.178;15.432;2022-12-24T17:02:45;-7.00;99.90
11446;DHT22;5779;64.178;15.432;2022-12-24T17:05:32;-6.90;99.90
11446;DHT22;5779;64.178;15.432;2022-12-24T17:08:21;-7.20;99.90
11446;DHT22;5779;64.178;15.432;2022-12-24T17:11:07;-7.50;99.90
11446;DHT22;5779;64.178;15.432;2022-12-24T17:13:54;-7.70;99.90
11446;DHT22;5779;64.178;15.432;2022-12-24T17:16:41;-7.60;99.90
11446;DHT22;5779;64.178;15.432;2022-12-24T17:19:28;-7.60;99.90
11446;DHT22;5779;64.178;15.432;2022-12-24T17:22:15;-7.60;99.90
11446;DHT22;5779;64.178;15.432;2022-12-24T17:25:04;-7.80;99.90
11446;DHT22;5779;64.178;15.432;2022-12-24T17:27:51;-8.20;99.90
11446;DHT22;5779;64.178;15.432;2022-12-24T17:30:39;-8.40;99.90
11446;DHT22;5779;64.178;15.432;2022-12-24T17:33:26;-8.40;99.90
11446;DHT22;5779;64.178;15.432;2022-12-24T17:36:13;-8.50;99.90
11446;DHT22;5779;64.178;15.432;2022-12-24T17:39:00;-8.60;99.90
11446;DHT22;5779;64.178;15.432;2022-12-24T17:41:48;-8.50;99.90
11446;DHT22;5779;64.178;15.432;2022-12-24T17:44:35;-8.40;99.90
11446;DHT22;5779;64.178;15.432;2022-12-24T17:47:22;-9.10;99.90
11446;DHT22;5779;64.178;15.432;2022-12-24T17:50:10;-9.20;99.90
11446;DHT22;5779;64.178;15.432;2022-12-24T17:52:57;-9.70;99.90
11446;DHT22;5779;64.178;15.432;2022-12-24T17:55:44;-9.60;99.90
11446;DHT22;5779;64.178;15.432;2022-12-24T17:58:32;-9.40;99.90
11446;DHT22;5779;64.178;15.432;2022-12-24T18:01:21;-9.40;99.90
11446;DHT22;5779;64.178;15.432;2022-12-24T18:04:09;-9.60;99.90